createdAt,value
2022-12-03T00:00:18.844Z,17.51
2022-12-03T00:03:03.877Z,17.41
2022-12-03T00:05:49.475Z,16.71
2022-12-03T00:08:34.668Z,16.59
2022-12-03T00:11:19.636Z,16.68
2022-12-03T00:14:04.589Z,16.74
2022-12-03T00:16:49.650Z,16.59
2022-12-03T00:19:34.598Z,16.52
2022-12-03T00:22:19.656Z,15.65
2022-12-03T00:25:04.535Z,15.59
2022-12-03T00:27:49.482Z,14.83
2022-12-03T00:30:34.271Z,13.91
2022-12-03T00:33:19.728Z,13.88
2022-12-03T00:36:04.671Z,14.96
2022-12-03T00:38:49.599Z,14.50
2022-12-03T00:41:34.521Z,13.86
2022-12-03T00:44:19.310Z,14.32
2022-12-03T00:47:04.326Z,14.10
2022-12-03T00:49:49.730Z,14.00
2022-12-03T00:52:34.567Z,13.84
2022-12-03T00:55:19.539Z,13.95
2022-12-03T00:58:04.478Z,13.99
2022-12-03T01:00:49.354Z,14.49
2022-12-03T01:03:34.252Z,14.49
2022-12-03T01:06:19.301Z,15.26
2022-12-03T01:09:04.099Z,14.95
2022-12-03T01:11:49.158Z,14.67
2022-12-03T01:14:34.043Z,15.13
2022-12-03T01:17:18.993Z,15.13
2022-12-03T01:20:03.914Z,14.48
2022-12-03T01:22:48.901Z,14.83
2022-12-03T01:25:33.877Z,15.11
2022-12-03T01:28:18.826Z,14.07
2022-12-03T01:31:03.887Z,14.71
2022-12-03T01:33:48.529Z,14.07
2022-12-03T01:36:33.429Z,13.83
2022-12-03T01:39:18.306Z,13.89
2022-12-03T01:42:03.316Z,13.34
2022-12-03T01:44:48.265Z,13.13
2022-12-03T01:47:33.294Z,12.39
2022-12-03T01:50:18.175Z,12.89
2022-12-03T01:53:03.242Z,12.50
2022-12-03T01:55:49.173Z,12.36
2022-12-03T01:58:34.071Z,13.40
2022-12-03T02:01:19.014Z,12.82
2022-12-03T02:04:03.895Z,12.96
2022-12-03T02:06:49.528Z,12.55
2022-12-03T02:09:34.393Z,12.33
2022-12-03T02:12:19.453Z,12.65
2022-12-03T02:15:04.385Z,12.75
2022-12-03T02:17:49.329Z,13.61
2022-12-03T02:20:34.374Z,12.68
2022-12-03T02:23:19.242Z,13.00
2022-12-03T02:26:04.104Z,12.21
2022-12-03T02:28:49.103Z,12.69
2022-12-03T02:31:34.082Z,13.37
2022-12-03T02:34:19.500Z,13.17
2022-12-03T02:37:04.411Z,13.76
2022-12-03T02:39:49.457Z,13.20
2022-12-03T02:42:34.340Z,13.64
2022-12-03T02:45:19.231Z,13.27
2022-12-03T02:48:04.102Z,13.59
2022-12-03T02:50:49.164Z,13.96
2022-12-03T02:53:34.149Z,13.48
2022-12-03T02:56:19.191Z,14.35
2022-12-03T02:59:04.155Z,14.52
2022-12-03T03:01:49.134Z,14.35
2022-12-03T03:04:34.162Z,14.34
2022-12-03T03:07:18.949Z,14.53
2022-12-03T03:10:03.756Z,14.34
2022-12-03T03:12:48.565Z,14.74
2022-12-03T03:15:33.514Z,15.11
2022-12-03T03:18:18.409Z,15.02
2022-12-03T03:21:03.334Z,14.93
2022-12-03T03:23:48.223Z,14.73
2022-12-03T03:26:33.064Z,14.71
2022-12-03T03:29:18.155Z,14.66
2022-12-03T03:32:03.085Z,14.67
2022-12-03T03:34:48.457Z,14.99
2022-12-03T03:37:33.363Z,14.71
2022-12-03T03:40:18.263Z,14.68
2022-12-03T03:43:03.165Z,14.87
2022-12-03T03:45:48.030Z,13.94
2022-12-03T03:48:33.078Z,14.47
2022-12-03T03:51:18.161Z,14.69
2022-12-03T03:54:03.266Z,14.18
2022-12-03T03:56:48.069Z,14.79
2022-12-03T03:59:33.090Z,14.86
2022-12-03T04:02:18.042Z,14.35
2022-12-03T04:05:03.224Z,14.26
2022-12-03T04:07:48.679Z,14.01
2022-12-03T04:10:33.454Z,14.47
2022-12-03T04:13:18.470Z,14.15
2022-12-03T04:16:03.475Z,14.24
2022-12-03T04:18:48.821Z,13.92
2022-12-03T04:21:33.619Z,14.22
2022-12-03T04:24:18.636Z,14.31
2022-12-03T04:27:03.458Z,14.27
2022-12-03T04:29:48.300Z,14.32
2022-12-03T04:32:33.492Z,13.88
2022-12-03T04:35:19.032Z,14.08
2022-12-03T04:38:04.291Z,13.78
2022-12-03T04:40:49.116Z,13.38
2022-12-03T04:43:34.172Z,13.62
2022-12-03T04:46:19.123Z,13.76
2022-12-03T04:49:04.107Z,13.65
2022-12-03T04:51:49.218Z,12.97
2022-12-03T04:54:34.051Z,13.04
2022-12-03T04:57:19.010Z,13.01
2022-12-03T05:00:03.843Z,12.71
2022-12-03T05:02:49.015Z,12.80
2022-12-03T05:05:34.506Z,12.58
2022-12-03T05:08:19.991Z,12.63
2022-12-03T05:11:04.939Z,12.80
2022-12-03T05:13:50.004Z,12.84
2022-12-03T05:16:34.884Z,12.78
2022-12-03T05:19:19.701Z,12.85
2022-12-03T05:22:04.699Z,13.00
2022-12-03T05:24:49.685Z,12.74
2022-12-03T05:27:34.608Z,12.70
2022-12-03T05:30:19.433Z,12.59
2022-12-03T05:33:04.371Z,12.86
2022-12-03T05:35:49.241Z,12.89
2022-12-03T05:38:34.164Z,12.01
2022-12-03T05:41:19.069Z,12.24
2022-12-03T05:44:03.930Z,11.98
2022-12-03T05:46:48.908Z,11.83
2022-12-03T05:49:33.699Z,12.15
2022-12-03T05:52:18.696Z,11.95
2022-12-03T05:55:03.499Z,11.81
2022-12-03T05:57:48.455Z,11.61
2022-12-03T06:00:37.640Z,11.58
2022-12-03T06:03:26.128Z,11.65
2022-12-03T06:06:11.259Z,11.62
2022-12-03T06:08:56.313Z,11.94
2022-12-03T06:11:41.216Z,11.97
2022-12-03T06:14:26.126Z,11.75
2022-12-03T06:17:10.985Z,12.05
2022-12-03T06:19:55.870Z,12.06
2022-12-03T06:22:40.731Z,11.70
2022-12-03T06:25:25.768Z,11.79
2022-12-03T06:28:10.721Z,12.03
2022-12-03T06:30:55.826Z,12.10
2022-12-03T06:33:41.151Z,11.73
2022-12-03T06:36:26.210Z,11.99
2022-12-03T06:39:11.245Z,11.52
2022-12-03T06:41:56.247Z,11.87
2022-12-03T06:44:41.148Z,11.88
2022-12-03T06:47:26.086Z,11.48
2022-12-03T06:50:11.017Z,11.22
2022-12-03T06:52:55.820Z,11.53
2022-12-03T06:55:40.658Z,11.15
2022-12-03T06:58:25.597Z,11.38
2022-12-03T07:01:10.541Z,11.41
2022-12-03T07:03:55.422Z,11.37
2022-12-03T07:06:40.307Z,11.15
2022-12-03T07:09:25.168Z,11.00
2022-12-03T07:12:10.390Z,11.15
2022-12-03T07:14:55.625Z,11.07
2022-12-03T07:17:41.186Z,10.86
2022-12-03T07:20:25.940Z,10.96
2022-12-03T07:23:10.804Z,10.73
2022-12-03T07:25:55.568Z,11.24
2022-12-03T07:28:40.478Z,11.21
2022-12-03T07:31:25.472Z,11.15
2022-12-03T07:34:10.178Z,12.04
2022-12-03T07:36:55.297Z,12.77
2022-12-03T07:39:40.195Z,12.18
2022-12-03T07:42:25.087Z,11.23
2022-12-03T07:45:09.997Z,11.33
2022-12-03T07:47:54.969Z,11.21
2022-12-03T07:50:39.769Z,10.94
2022-12-03T07:53:24.809Z,11.24
2022-12-03T07:56:09.650Z,11.39
2022-12-03T07:58:54.485Z,11.24
2022-12-03T08:01:39.572Z,10.97
2022-12-03T08:04:24.903Z,11.10
2022-12-03T08:07:09.853Z,11.19
2022-12-03T08:09:54.690Z,11.32
2022-12-03T08:12:39.610Z,11.40
2022-12-03T08:15:24.470Z,11.49
2022-12-03T08:18:09.393Z,11.69
2022-12-03T08:20:54.230Z,11.16
2022-12-03T08:23:39.202Z,11.09
2022-12-03T08:26:24.281Z,11.21
2022-12-03T08:29:09.095Z,11.34
2022-12-03T08:31:54.179Z,11.75
2022-12-03T08:34:39.602Z,11.53
2022-12-03T08:37:24.609Z,11.31
2022-12-03T08:40:09.465Z,12.23
2022-12-03T08:42:54.386Z,12.17
2022-12-03T08:45:39.454Z,12.78
2022-12-03T08:48:24.822Z,12.76
2022-12-03T08:51:09.805Z,12.62
2022-12-03T08:54:01.083Z,12.80
2022-12-03T08:56:46.717Z,12.57
2022-12-03T08:59:31.608Z,12.31
2022-12-03T09:02:16.402Z,12.38
2022-12-03T09:05:01.414Z,13.30
2022-12-03T09:07:46.360Z,13.05
2022-12-03T09:10:31.157Z,13.14
2022-12-03T09:13:16.195Z,12.98
2022-12-03T09:16:01.195Z,13.79
2022-12-03T09:18:46.137Z,13.85
2022-12-03T09:21:30.896Z,14.60
2022-12-03T09:24:15.736Z,14.23
2022-12-03T09:27:00.616Z,14.00
2022-12-03T09:29:45.593Z,13.88
2022-12-03T09:32:30.685Z,13.85
2022-12-03T09:35:15.530Z,14.09
2022-12-03T09:38:00.471Z,14.41
2022-12-03T09:40:45.313Z,14.25
2022-12-03T09:43:49.547Z,14.15
2022-12-03T09:46:35.647Z,14.51
2022-12-03T09:49:20.946Z,14.04
2022-12-03T09:52:05.875Z,14.56
2022-12-03T09:54:50.726Z,14.99
2022-12-03T09:57:35.672Z,15.30
2022-12-03T10:00:20.486Z,15.29
2022-12-03T10:03:05.497Z,15.48
2022-12-03T10:05:50.541Z,15.35
2022-12-03T10:08:35.388Z,15.38
2022-12-03T10:11:20.264Z,15.69
2022-12-03T10:14:05.134Z,15.59
2022-12-03T10:16:50.029Z,15.74
2022-12-03T10:19:34.735Z,15.69
2022-12-03T10:22:19.630Z,14.68
2022-12-03T10:25:04.474Z,15.14
2022-12-03T10:27:49.505Z,15.33
2022-12-03T10:30:34.443Z,15.37
2022-12-03T10:33:19.455Z,14.35
2022-12-03T10:36:04.379Z,14.65
2022-12-03T10:38:49.315Z,14.76
2022-12-03T10:41:34.374Z,14.08
2022-12-03T10:44:19.246Z,13.88
2022-12-03T10:47:04.401Z,14.09
2022-12-03T10:49:49.706Z,14.29
2022-12-03T10:52:34.630Z,14.55
2022-12-03T10:55:19.649Z,14.35
2022-12-03T10:58:04.427Z,14.28
2022-12-03T11:00:49.452Z,14.39
2022-12-03T11:03:34.617Z,14.52
2022-12-03T11:06:19.613Z,14.40
2022-12-03T11:09:08.714Z,14.59
2022-12-03T11:11:54.358Z,14.48
2022-12-03T11:14:39.237Z,14.96
2022-12-03T11:17:24.783Z,14.59
2022-12-03T11:20:09.592Z,14.81
2022-12-03T11:22:54.509Z,15.28
2022-12-03T11:25:39.484Z,15.18
2022-12-03T11:28:24.418Z,14.73
2022-12-03T11:31:09.396Z,15.68
2022-12-03T11:33:54.205Z,15.01
2022-12-03T11:37:00.729Z,15.32
2022-12-03T11:39:44.236Z,14.55
2022-12-03T11:42:29.117Z,15.48
2022-12-03T11:45:13.983Z,15.61
2022-12-03T11:47:58.923Z,16.76
2022-12-03T11:50:43.788Z,16.45
2022-12-03T11:53:28.755Z,16.88
2022-12-03T11:56:13.515Z,16.44
2022-12-03T11:58:58.338Z,16.13
2022-12-03T12:01:43.281Z,16.71
2022-12-03T12:04:28.242Z,15.88
2022-12-03T12:07:13.595Z,16.13
2022-12-03T12:09:58.605Z,15.67
2022-12-03T12:12:54.315Z,15.94
2022-12-03T12:15:39.635Z,15.80
2022-12-03T12:18:24.686Z,15.54
2022-12-03T12:21:09.587Z,15.90
2022-12-03T12:23:54.570Z,15.75
2022-12-03T12:26:39.377Z,16.00
2022-12-03T12:29:24.396Z,16.03
2022-12-03T12:32:09.478Z,16.66
2022-12-03T12:34:54.923Z,16.21
2022-12-03T12:37:42.622Z,15.60
2022-12-03T12:40:29.722Z,16.61
2022-12-03T12:43:20.356Z,16.07
2022-12-03T12:46:38.640Z,16.25
2022-12-03T12:49:13.944Z,16.36
2022-12-03T12:51:58.901Z,15.78
2022-12-03T12:54:43.819Z,16.04
2022-12-03T12:57:29.715Z,15.37
2022-12-03T13:00:14.709Z,15.36
2022-12-03T13:03:00.415Z,15.55
2022-12-03T13:05:45.881Z,15.94
2022-12-03T13:08:30.796Z,15.33
2022-12-03T13:11:15.821Z,15.96
2022-12-03T13:14:00.749Z,15.80
2022-12-03T13:16:45.856Z,16.68
2022-12-03T13:19:31.331Z,15.78
2022-12-03T13:22:16.393Z,16.83
2022-12-03T13:25:01.373Z,16.33
2022-12-03T13:27:46.308Z,16.65
2022-12-03T13:30:31.340Z,16.85
2022-12-03T13:33:16.324Z,16.92
2022-12-03T13:36:01.300Z,16.77
2022-12-03T13:38:46.094Z,16.71
2022-12-03T13:41:31.168Z,17.04
2022-12-03T13:44:16.053Z,16.97
2022-12-03T13:47:01.143Z,17.44
2022-12-03T13:49:46.059Z,18.22
2022-12-03T13:52:31.057Z,18.19
2022-12-03T13:55:17.314Z,18.06
2022-12-03T13:58:17.720Z,18.69
2022-12-03T14:01:03.102Z,18.56
2022-12-03T14:03:48.426Z,18.93
2022-12-03T14:06:33.611Z,18.79
2022-12-03T14:09:18.536Z,19.39
2022-12-03T14:12:03.671Z,19.66
2022-12-03T14:14:48.724Z,18.89
2022-12-03T14:17:33.639Z,19.50
2022-12-03T14:20:18.737Z,19.05
2022-12-03T14:23:03.731Z,19.42
2022-12-03T14:25:49.176Z,19.03
2022-12-03T14:28:34.120Z,19.68
2022-12-03T14:31:19.087Z,19.19
2022-12-03T14:34:04.556Z,19.18
2022-12-03T14:36:49.605Z,18.74
2022-12-03T14:39:34.490Z,20.33
2022-12-03T14:42:19.641Z,19.44
2022-12-03T14:45:04.665Z,19.60
2022-12-03T14:47:50.090Z,20.69
2022-12-03T14:50:35.161Z,20.52
2022-12-03T14:53:25.613Z,19.95
2022-12-03T14:56:12.162Z,20.23
2022-12-03T14:58:57.190Z,20.25
2022-12-03T15:01:42.238Z,20.01
2022-12-03T15:04:27.638Z,20.01
2022-12-03T15:07:12.573Z,19.86
2022-12-03T15:09:57.699Z,19.94
2022-12-03T15:12:43.055Z,20.09
2022-12-03T15:15:27.973Z,19.77
2022-12-03T15:18:12.828Z,20.22
2022-12-03T15:20:57.910Z,19.29
2022-12-03T15:23:42.865Z,19.90
2022-12-03T15:26:27.906Z,20.25
2022-12-03T15:29:12.743Z,19.61
2022-12-03T15:31:57.725Z,19.90
2022-12-03T15:34:44.955Z,19.72
2022-12-03T15:37:29.969Z,20.46
2022-12-03T15:40:14.810Z,19.06
2022-12-03T15:42:59.695Z,19.46
2022-12-03T15:45:44.672Z,19.51
2022-12-03T15:48:29.414Z,20.09
2022-12-03T15:51:14.499Z,19.95
2022-12-03T15:54:00.826Z,20.50
2022-12-03T15:56:46.165Z,20.82
2022-12-03T15:59:31.666Z,20.71
2022-12-03T16:02:16.689Z,20.12
2022-12-03T16:05:02.212Z,20.34
2022-12-03T16:07:48.388Z,20.55
2022-12-03T16:10:33.764Z,20.14
2022-12-03T16:13:18.907Z,20.62
2022-12-03T16:16:03.751Z,20.96
2022-12-03T16:18:49.435Z,21.13
2022-12-03T16:21:34.996Z,20.14
2022-12-03T16:24:19.903Z,20.26
2022-12-03T16:27:05.044Z,20.07
2022-12-03T16:29:50.032Z,20.04
2022-12-03T16:32:35.072Z,19.94
2022-12-03T16:35:19.930Z,21.04
2022-12-03T16:38:04.949Z,21.47
2022-12-03T16:40:50.520Z,20.99
2022-12-03T16:43:35.512Z,20.15
2022-12-03T16:46:20.460Z,20.02
2022-12-03T16:49:05.928Z,19.87
2022-12-03T16:51:50.888Z,19.98
2022-12-03T16:54:35.807Z,21.01
2022-12-03T16:57:20.679Z,24.15
2022-12-03T17:00:05.504Z,32.05
2022-12-03T17:02:50.527Z,24.44
2022-12-03T17:05:36.005Z,21.53
2022-12-03T17:08:20.886Z,21.09
2022-12-03T17:11:06.782Z,20.53
2022-12-03T17:13:51.995Z,20.38
2022-12-03T17:16:37.059Z,20.61
2022-12-03T17:19:22.026Z,20.20
2022-12-03T17:22:07.026Z,20.37
2022-12-03T17:24:51.989Z,19.50
2022-12-03T17:27:40.823Z,19.50
2022-12-03T17:30:30.034Z,19.31
2022-12-03T17:33:15.076Z,19.32
2022-12-03T17:36:00.113Z,20.10
2022-12-03T17:38:45.138Z,19.31
2022-12-03T17:41:30.064Z,20.40
2022-12-03T17:44:19.388Z,20.95
2022-12-03T17:47:05.912Z,19.88
2022-12-03T17:49:50.896Z,19.98
2022-12-03T17:52:35.883Z,20.15
2022-12-03T17:55:28.180Z,20.21
2022-12-03T17:58:21.129Z,20.87
2022-12-03T18:01:06.139Z,21.51
2022-12-03T18:03:51.675Z,20.62
2022-12-03T18:06:37.060Z,20.05
2022-12-03T18:09:22.049Z,22.35
2022-12-03T18:12:06.990Z,20.83
2022-12-03T18:14:51.932Z,21.19
2022-12-03T18:17:36.829Z,22.86
2022-12-03T18:20:22.993Z,21.79
2022-12-03T18:23:08.296Z,23.09
2022-12-03T18:25:53.357Z,22.50
2022-12-03T18:28:38.205Z,22.13
2022-12-03T18:31:23.200Z,24.51
2022-12-03T18:34:09.028Z,33.41
2022-12-03T18:36:54.152Z,30.60
2022-12-03T18:39:39.148Z,28.63
2022-12-03T18:42:23.987Z,32.25
2022-12-03T18:45:09.121Z,33.17
2022-12-03T18:47:54.456Z,29.82
2022-12-03T18:50:39.863Z,35.20
2022-12-03T18:53:24.891Z,27.29
2022-12-03T18:56:10.345Z,24.33
2022-12-03T18:58:55.340Z,23.57
2022-12-03T19:01:40.270Z,23.18
2022-12-03T19:04:25.254Z,21.97
2022-12-03T19:07:10.135Z,23.73
2022-12-03T19:09:55.608Z,22.31
2022-12-03T19:12:40.992Z,22.75
2022-12-03T19:15:26.194Z,31.31
2022-12-03T19:18:11.201Z,27.71
2022-12-03T19:20:56.173Z,27.34
2022-12-03T19:23:41.404Z,31.84
2022-12-03T19:26:28.150Z,22.67
2022-12-03T19:29:13.137Z,24.53
2022-12-03T19:31:58.250Z,24.81
2022-12-03T19:34:43.583Z,22.49
2022-12-03T19:37:28.559Z,22.96
2022-12-03T19:40:13.386Z,23.52
2022-12-03T19:42:58.487Z,27.35
2022-12-03T19:45:43.525Z,28.62
2022-12-03T19:48:28.561Z,22.81
2022-12-03T19:51:33.734Z,25.96
2022-12-03T19:54:18.779Z,24.36
2022-12-03T19:57:03.688Z,21.50
2022-12-03T19:59:48.700Z,22.49
2022-12-03T20:02:33.731Z,24.40
2022-12-03T20:05:19.109Z,22.25
2022-12-03T20:08:04.083Z,21.01
2022-12-03T20:10:49.394Z,21.13
2022-12-03T20:13:36.520Z,21.28
2022-12-03T20:16:21.798Z,19.90
2022-12-03T20:19:06.708Z,19.47
2022-12-03T20:21:51.613Z,18.80
2022-12-03T20:24:36.540Z,20.13
2022-12-03T20:27:23.159Z,20.60
2022-12-03T20:30:08.557Z,19.61
2022-12-03T20:32:53.646Z,20.68
2022-12-03T20:35:38.639Z,19.12
2022-12-03T20:38:23.646Z,20.18
2022-12-03T20:41:08.608Z,38.45
2022-12-03T20:43:53.633Z,27.28
2022-12-03T20:46:38.712Z,23.58
2022-12-03T20:49:23.606Z,30.00
2022-12-03T20:52:08.495Z,22.96
2022-12-03T20:54:53.548Z,21.77
2022-12-03T20:57:38.644Z,25.45
2022-12-03T21:00:23.471Z,22.42
2022-12-03T21:03:08.417Z,20.74
2022-12-03T21:05:53.281Z,21.47
2022-12-03T21:08:42.462Z,21.14
2022-12-03T21:11:27.914Z,22.76
2022-12-03T21:14:12.835Z,24.19
2022-12-03T21:17:08.374Z,22.49
2022-12-03T21:19:54.720Z,21.04
2022-12-03T21:22:40.252Z,22.13
2022-12-03T21:25:25.213Z,20.02
2022-12-03T21:28:10.255Z,19.71
2022-12-03T21:30:55.130Z,20.06
2022-12-03T21:33:39.886Z,19.40
2022-12-03T21:36:24.870Z,19.46
2022-12-03T21:39:09.714Z,19.17
2022-12-03T21:42:34.054Z,19.05
2022-12-03T21:44:59.763Z,20.25
2022-12-03T21:47:44.839Z,19.43
2022-12-03T21:50:30.134Z,19.05
2022-12-03T21:53:15.183Z,19.62
2022-12-03T21:56:00.351Z,19.07
2022-12-03T21:58:45.351Z,19.28
2022-12-03T22:01:30.570Z,19.63
2022-12-03T22:04:15.305Z,20.74
2022-12-03T22:07:00.354Z,26.39
2022-12-03T22:09:45.313Z,21.29
2022-12-03T22:12:30.287Z,20.25
2022-12-03T22:15:19.026Z,20.52
2022-12-03T22:18:04.404Z,21.31
2022-12-03T22:20:49.616Z,20.21
2022-12-03T22:23:34.387Z,19.61
2022-12-03T22:26:19.352Z,19.35
2022-12-03T22:29:04.425Z,19.66
2022-12-03T22:31:49.445Z,19.60
2022-12-03T22:34:34.450Z,19.94
2022-12-03T22:37:19.290Z,20.32
2022-12-03T22:40:04.258Z,19.89
2022-12-03T22:42:51.113Z,20.15
2022-12-03T22:45:36.166Z,19.83
2022-12-03T22:48:20.995Z,19.96
2022-12-03T22:51:05.828Z,20.00
2022-12-03T22:53:50.855Z,19.52
2022-12-03T22:56:35.659Z,19.26
2022-12-03T22:59:20.554Z,19.37
2022-12-03T23:02:05.551Z,19.05
2022-12-03T23:04:51.364Z,18.83
2022-12-03T23:07:36.471Z,18.82
2022-12-03T23:10:21.381Z,18.94
2022-12-03T23:13:06.949Z,18.76
2022-12-03T23:15:52.033Z,18.01
2022-12-03T23:18:37.492Z,18.66
2022-12-03T23:21:28.586Z,17.98
2022-12-03T23:24:14.968Z,18.60
2022-12-03T23:26:59.836Z,17.67
2022-12-03T23:29:44.944Z,17.77
2022-12-03T23:32:29.766Z,18.00
2022-12-03T23:35:14.938Z,18.11
2022-12-03T23:38:00.019Z,17.83
2022-12-03T23:40:48.336Z,17.60
2022-12-03T23:43:33.561Z,17.78
2022-12-03T23:46:20.927Z,17.46
2022-12-03T23:49:05.857Z,17.32
2022-12-03T23:51:51.015Z,17.64
2022-12-03T23:54:36.040Z,17.54
2022-12-03T23:57:20.994Z,17.65
